Time;durP1;ratioP1;P1;durP2;ratioP2;P2;SDS_P1;SDS_P2;PMS_P1;PMS_P2;Temp;Humidity;BMP_temperature;BMP_pressure;BME280_temperature;BME280_humidity;BME280_pressure;Samples;Min_cycle;Max_cycle;Signal;HPM_P1;HPM_P2
2021/03/16 00:02:17;;;;;;;0.47;0.47;;;;;;;5.77;69.25;95614.66;5003739;28;20053;-91
2021/03/16 00:04:42;;;;;;;0.43;0.43;;;;;;;5.81;70.35;95616.13;5002476;28;20463;-90
2021/03/16 00:07:08;;;;;;;0.45;0.45;;;;;;;5.89;69.51;95618.22;5003987;28;20034;-90
2021/03/16 00:09:34;;;;;;;0.20;0.20;;;;;;;5.87;69.32;95621.00;5003491;28;20508;-91
2021/03/16 00:11:59;;;;;;;0.28;0.28;;;;;;;5.87;70.29;95625.47;5002949;28;20052;-90
2021/03/16 00:14:25;;;;;;;0.30;0.30;;;;;;;5.84;69.02;95621.19;5004933;28;20025;-92
2021/03/16 00:16:51;;;;;;;0.20;0.20;;;;;;;5.88;70.77;95611.22;5003984;28;20116;-91
2021/03/16 00:19:20;;;;;;;0.25;0.20;;;;;;;5.88;68.61;95609.41;5006432;28;20029;-91
2021/03/16 00:21:46;;;;;;;0.30;0.28;;;;;;;5.91;67.96;95608.31;5022480;28;20033;-91
2021/03/16 00:24:11;;;;;;;0.32;0.30;;;;;;;5.83;69.42;95605.38;5004901;28;20091;-91
2021/03/16 00:26:37;;;;;;;0.20;0.20;;;;;;;5.79;69.01;95612.72;5009457;28;20033;-91
2021/03/16 00:29:03;;;;;;;0.30;0.30;;;;;;;5.85;69.36;95628.22;5005829;28;20067;-91
2021/03/16 00:31:29;;;;;;;0.20;0.20;;;;;;;5.89;69.38;95612.91;5005416;28;20029;-91
2021/03/16 00:33:55;;;;;;;0.13;0.13;;;;;;;5.94;68.92;95608.94;5004431;28;20091;-89
2021/03/16 00:36:21;;;;;;;0.25;0.17;;;;;;;5.92;67.59;95602.94;5004993;28;20493;-91
2021/03/16 00:38:46;;;;;;;0.15;0.15;;;;;;;5.85;68.26;95585.75;5005285;28;20025;-91
2021/03/16 00:41:12;;;;;;;0.22;0.22;;;;;;;5.95;68.47;95602.69;5003659;28;20087;-90
2021/03/16 00:43:37;;;;;;;0.22;0.22;;;;;;;5.89;68.46;95594.34;5003985;28;20104;-91
2021/03/16 00:46:03;;;;;;;0.40;0.40;;;;;;;5.97;69.13;95599.91;5003981;28;20029;-90
2021/03/16 00:48:28;;;;;;;0.50;0.50;;;;;;;5.90;67.83;95594.25;5022751;28;20053;-91
2021/03/16 00:50:55;;;;;;;0.90;0.50;;;;;;;5.78;68.18;95600.41;5007193;28;20089;-91
2021/03/16 00:53:20;;;;;;;0.40;0.40;;;;;;;5.84;68.85;95599.13;5005845;28;20140;-91
2021/03/16 00:55:46;;;;;;;0.20;0.20;;;;;;;5.71;69.36;95596.53;5023801;28;20033;-93
2021/03/16 00:58:11;;;;;;;0.15;0.15;;;;;;;5.65;69.82;95602.28;5005800;28;20469;-92
2021/03/16 01:00:37;;;;;;;0.15;0.15;;;;;;;5.63;70.28;95606.84;5003618;28;20017;-89
2021/03/16 01:03:03;;;;;;;0.68;0.20;;;;;;;5.57;70.67;95596.69;5002960;28;20049;-93
2021/03/16 01:05:30;;;;;;;0.35;0.35;;;;;;;5.60;69.30;95600.94;5002825;28;20073;-92
2021/03/16 01:07:56;;;;;;;0.17;0.17;;;;;;;5.59;71.71;95599.25;5002193;28;20038;-91
2021/03/16 01:10:23;;;;;;;0.47;0.47;;;;;;;5.61;70.20;95600.81;5019628;28;20034;-91
2021/03/16 01:12:49;;;;;;;0.10;0.10;;;;;;;5.61;70.53;95584.91;5004166;28;20179;-92
2021/03/16 01:15:15;;;;;;;0.22;0.22;;;;;;;5.70;73.05;95597.47;5002825;28;20493;-92
2021/03/16 01:17:41;;;;;;;0.25;0.25;;;;;;;5.72;69.90;95590.25;5002476;28;20029;-91
2021/03/16 01:20:12;;;;;;;0.22;0.22;;;;;;;5.77;70.26;95581.97;5003223;28;20171;-91
2021/03/16 01:22:39;;;;;;;0.40;0.40;;;;;;;5.79;69.56;95590.66;5002161;28;20029;-91
2021/03/16 01:25:05;;;;;;;0.30;0.30;;;;;;;5.75;71.13;95586.56;5017906;28;20117;-91
2021/03/16 01:27:30;;;;;;;1.13;0.57;;;;;;;5.66;70.51;95589.88;5001981;28;20124;-92
2021/03/16 01:29:56;;;;;;;0.20;0.20;;;;;;;5.61;69.96;95586.72;5001780;28;20087;-91
2021/03/16 01:32:21;;;;;;;0.10;0.10;;;;;;;5.64;71.05;95589.97;5001689;28;20025;-91
2021/03/16 01:34:47;;;;;;;0.00;0.00;;;;;;;5.45;72.10;95584.34;5001683;28;20025;-91
2021/03/16 01:37:12;;;;;;;0.40;0.40;;;;;;;5.45;73.88;95582.53;5002916;28;20025;-90
2021/03/16 01:39:38;;;;;;;0.80;0.70;;;;;;;5.44;74.86;95586.13;5002060;28;20029;-92
2021/03/16 01:42:04;;;;;;;0.20;0.20;;;;;;;5.41;74.22;95591.66;5019016;28;20025;-92
2021/03/16 01:44:29;;;;;;;0.17;0.17;;;;;;;5.38;74.21;95588.41;5002707;28;20532;-92
2021/03/16 01:46:55;;;;;;;0.20;0.20;;;;;;;5.19;75.74;95586.25;5003177;28;20097;-92
2021/03/16 01:49:20;;;;;;;0.85;0.28;;;;;;;5.17;78.04;95592.63;5002246;28;20103;-92
2021/03/16 01:51:46;;;;;;;0.32;0.20;;;;;;;5.08;78.64;95595.91;5002282;28;20058;-91
2021/03/16 01:54:12;;;;;;;0.10;0.10;;;;;;;4.95;80.45;95587.16;5001447;28;20064;-91
2021/03/16 01:56:38;;;;;;;0.10;0.10;;;;;;;4.74;82.82;95592.16;5002883;28;20029;-91
2021/03/16 01:59:04;;;;;;;0.10;0.10;;;;;;;4.65;82.39;95591.00;5001633;28;20067;-91
2021/03/16 02:01:30;;;;;;;0.28;0.28;;;;;;;4.56;83.87;95583.72;5000701;28;20112;-91
2021/03/16 02:03:55;;;;;;;0.35;0.35;;;;;;;4.60;84.03;95590.50;5001941;28;20020;-91
2021/03/16 02:07:03;;;;;;;0.17;0.17;;;;;;;4.55;85.31;95595.28;5001785;28;20029;-91
2021/03/16 02:09:39;;;;;;;1.38;0.52;;;;;;;4.50;86.18;95605.31;5012827;28;20045;-91
2021/03/16 02:12:25;;;;;;;0.30;0.30;;;;;;;4.37;86.99;95591.22;5001628;28;20114;-91
2021/03/16 02:14:57;;;;;;;1.27;0.65;;;;;;;4.33;87.15;95595.91;5018579;28;20029;-91
2021/03/16 02:17:27;;;;;;;0.10;0.10;;;;;;;4.39;87.06;95605.22;5001213;28;20381;-90
2021/03/16 02:19:52;;;;;;;0.20;0.20;;;;;;;4.38;87.44;95608.81;5001419;28;20044;-91
2021/03/16 02:22:19;;;;;;;0.10;0.10;;;;;;;4.38;86.45;95601.72;5017386;28;20025;-91
2021/03/16 02:25:21;;;;;;;5.38;0.63;;;;;;;4.37;89.34;95607.97;5000649;28;20029;-91
2021/03/16 02:28:20;;;;;;;0.10;0.10;;;;;;;4.37;88.93;95607.97;5016743;28;20117;-90
2021/03/16 02:30:46;;;;;;;0.20;0.20;;;;;;;4.41;89.22;95607.75;5009912;28;20048;-90
2021/03/16 02:33:13;;;;;;;0.32;0.30;;;;;;;4.42;87.17;95599.72;5000068;28;20029;-90
2021/03/16 02:35:39;;;;;;;5.00;0.75;;;;;;;4.34;89.69;95594.94;4999428;28;20069;-89
2021/03/16 02:38:06;;;;;;;0.40;0.40;;;;;;;4.35;89.55;95606.38;5000903;28;20082;-89
2021/03/16 02:40:33;;;;;;;0.10;0.10;;;;;;;4.46;89.78;95609.13;4999711;28;20033;-90
2021/03/16 02:42:59;;;;;;;0.10;0.10;;;;;;;4.42;88.70;95605.00;4999562;28;20061;-91
2021/03/16 02:45:24;;;;;;;0.20;0.20;;;;;;;4.42;89.64;95601.50;5016547;28;20040;-91
2021/03/16 02:47:50;;;;;;;3.40;0.57;;;;;;;4.37;88.78;95612.41;5000865;28;20041;-91
2021/03/16 02:50:17;;;;;;;0.10;0.10;;;;;;;4.37;90.67;95601.81;5016862;28;20044;-90
2021/03/16 02:52:43;;;;;;;0.17;0.17;;;;;;;4.40;89.68;95606.06;5000793;28;20025;-92
2021/03/16 02:55:09;;;;;;;0.10;0.10;;;;;;;4.33;87.17;95595.91;5001140;28;20025;-91
2021/03/16 02:57:35;;;;;;;0.10;0.10;;;;;;;4.28;88.02;95599.81;5000521;28;20063;-91
2021/03/16 03:00:03;;;;;;;0.03;0.03;;;;;;;4.30;87.95;95595.28;5016614;28;20428;-91
2021/03/16 03:02:29;;;;;;;0.10;0.10;;;;;;;4.29;86.82;95598.84;4989963;28;20081;-90
2021/03/16 03:04:55;;;;;;;0.20;0.20;;;;;;;4.23;88.61;95591.34;4980857;28;20026;-90
2021/03/16 03:07:21;;;;;;;0.10;0.10;;;;;;;4.24;88.81;95599.19;4980774;28;20034;-90
2021/03/16 03:09:47;;;;;;;0.15;0.15;;;;;;;4.13;89.96;95590.28;4981586;28;20441;-90
2021/03/16 03:12:12;;;;;;;0.13;0.13;;;;;;;4.18;88.17;95591.63;4981327;28;20021;-90
2021/03/16 03:15:06;;;;;;;0.30;0.30;;;;;;;4.02;88.69;95561.06;4981938;28;20091;-90
2021/03/16 03:17:35;;;;;;;0.10;0.10;;;;;;;4.10;87.96;95575.47;4972342;28;20034;-91
2021/03/16 03:20:00;;;;;;;0.10;0.10;;;;;;;4.15;88.04;95575.16;4981819;28;20029;-90
2021/03/16 03:22:31;;;;;;;0.10;0.10;;;;;;;4.34;87.66;95602.88;4980705;28;20026;-89
2021/03/16 03:25:06;;;;;;;0.10;0.10;;;;;;;4.42;85.53;95594.44;4997640;28;20030;-89
2021/03/16 03:27:39;;;;;;;0.28;0.15;;;;;;;4.53;85.35;95607.75;4980744;28;20026;-89
2021/03/16 03:30:06;;;;;;;0.10;0.10;;;;;;;4.62;83.18;95604.47;4981194;28;20091;-89
2021/03/16 03:32:34;;;;;;;0.30;0.30;;;;;;;4.70;84.86;95610.09;4980938;28;20048;-89
2021/03/16 03:35:00;;;;;;;0.10;0.10;;;;;;;4.70;86.17;95599.50;4982054;28;20030;-89
2021/03/16 03:37:27;;;;;;;0.20;0.20;;;;;;;4.78;86.37;95607.75;4981688;28;20026;-89
2021/03/16 03:39:53;;;;;;;0.20;0.20;;;;;;;4.84;89.05;95607.31;4981629;28;20066;-89
2021/03/16 03:42:20;;;;;;;0.10;0.10;;;;;;;4.82;90.74;95606.56;4981214;28;20030;-90
2021/03/16 03:44:50;;;;;;;0.20;0.20;;;;;;;4.82;88.25;95613.66;4981400;28;20026;-89
2021/03/16 03:47:16;;;;;;;0.10;0.10;;;;;;;4.83;87.84;95612.69;4982149;28;20034;-89
2021/03/16 03:49:43;;;;;;;0.10;0.10;;;;;;;4.79;89.84;95609.44;4984256;28;20120;-90
2021/03/16 03:52:12;;;;;;;0.10;0.10;;;;;;;4.86;90.33;95617.81;4984959;28;20037;-89
2021/03/16 03:54:42;;;;;;;0.52;0.40;;;;;;;5.00;91.46;95625.59;4984301;28;20460;-89
2021/03/16 03:57:09;;;;;;;0.47;0.47;;;;;;;4.98;92.68;95621.38;5000005;28;20473;-90
2021/03/16 03:59:38;;;;;;;1.23;1.08;;;;;;;4.83;92.37;95615.34;4983500;28;20034;-90
2021/03/16 04:02:04;;;;;;;0.20;0.20;;;;;;;4.82;91.71;95622.47;5005777;28;20114;-89
2021/03/16 04:04:29;;;;;;;0.20;0.20;;;;;;;4.80;92.81;95621.69;5003428;28;20513;-89
2021/03/16 04:06:59;;;;;;;1.35;1.25;;;;;;;4.83;92.50;95626.78;5004191;28;20029;-90
2021/03/16 04:09:24;;;;;;;2.45;0.90;;;;;;;4.84;90.94;95617.91;5003186;28;20029;-90
2021/03/16 04:11:51;;;;;;;0.32;0.32;;;;;;;4.81;93.00;95633.16;5019433;28;20404;-90
2021/03/16 04:14:16;;;;;;;0.90;0.85;;;;;;;4.85;93.82;95635.50;5003191;28;20484;-89
2021/03/16 04:16:42;;;;;;;0.88;0.80;;;;;;;4.89;90.22;95642.25;5003134;28;20033;-90
2021/03/16 04:19:17;;;;;;;0.20;0.20;;;;;;;4.87;82.71;95635.38;5003416;28;20017;-90
2021/03/16 04:21:43;;;;;;;0.20;0.20;;;;;;;4.87;78.85;95627.41;5003966;28;20061;-90
2021/03/16 04:24:16;;;;;;;0.35;0.35;;;;;;;4.69;77.20;95600.44;5004357;28;20075;-90
2021/03/16 04:26:42;;;;;;;0.10;0.10;;;;;;;4.77;78.60;95624.56;5003669;28;20524;-91
2021/03/16 04:29:08;;;;;;;0.10;0.10;;;;;;;4.86;79.05;95658.34;5003984;28;20018;-92
2021/03/16 04:31:33;;;;;;;0.00;0.00;;;;;;;4.75;79.26;95637.09;5002974;28;20053;-90
2021/03/16 04:33:59;;;;;;;0.10;0.10;;;;;;;4.71;78.27;95640.03;5002164;28;20033;-91
2021/03/16 04:36:24;;;;;;;0.10;0.10;;;;;;;4.68;77.77;95654.34;5003915;28;20045;-90
2021/03/16 04:38:50;;;;;;;0.10;0.10;;;;;;;4.67;80.04;95655.31;5001984;28;20030;-88
2021/03/16 04:41:16;;;;;;;0.10;0.10;;;;;;;4.56;81.68;95656.97;5002778;28;20029;-87
2021/03/16 04:43:42;;;;;;;0.10;0.10;;;;;;;4.46;81.67;95659.41;5001126;28;20068;-88
2021/03/16 04:46:08;;;;;;;0.35;0.35;;;;;;;4.48;83.87;95660.16;5001534;28;20040;-86
2021/03/16 04:48:34;;;;;;;0.80;0.80;;;;;;;4.39;83.43;95652.84;5001938;28;20034;-89
2021/03/16 04:51:00;;;;;;;0.10;0.10;;;;;;;4.42;84.26;95657.94;5001117;28;20040;-88
2021/03/16 04:53:25;;;;;;;0.32;0.32;;;;;;;4.47;84.27;95663.75;5001588;28;20029;-89
2021/03/16 04:55:51;;;;;;;0.28;0.28;;;;;;;4.40;84.46;95661.66;5000520;28;20544;-88
2021/03/16 04:58:16;;;;;;;0.10;0.10;;;;;;;4.39;85.95;95666.09;5018097;28;20401;-88
2021/03/16 05:00:42;;;;;;;0.38;0.38;;;;;;;4.42;88.89;95654.44;5001099;28;20118;-86
2021/03/16 05:03:08;;;;;;;0.40;0.40;;;;;;;4.46;86.52;95670.00;4986321;28;20046;-88
2021/03/16 05:05:33;;;;;;;0.90;0.52;;;;;;;4.42;87.02;95657.94;4980567;28;20135;-88
2021/03/16 05:07:59;;;;;;;0.63;0.63;;;;;;;4.53;88.45;95676.56;4997382;28;20038;-88
2021/03/16 05:10:25;;;;;;;0.10;0.10;;;;;;;4.54;84.81;95672.97;4998003;28;20033;-88
2021/03/16 05:12:50;;;;;;;0.20;0.20;;;;;;;4.54;85.45;95670.34;4981376;28;20038;-87
2021/03/16 05:15:16;;;;;;;0.82;0.77;;;;;;;4.54;87.50;95678.28;4981353;28;20029;-88
2021/03/16 05:17:42;;;;;;;0.65;0.63;;;;;;;4.47;88.66;95677.00;4981275;28;20032;-87
2021/03/16 05:20:08;;;;;;;11.68;7.03;;;;;;;4.43;89.20;95675.50;4982577;28;20030;-88
2021/03/16 05:22:36;;;;;;;7.10;2.22;;;;;;;4.42;91.07;95679.09;4982914;28;20048;-87
2021/03/16 05:25:06;;;;;;;1.38;1.35;;;;;;;4.44;91.35;95679.84;4983467;28;20030;-88
2021/03/16 05:27:32;;;;;;;1.42;1.35;;;;;;;4.29;91.24;95680.88;4983760;28;20046;-89
2021/03/16 05:29:58;;;;;;;2.95;1.73;;;;;;;4.16;93.49;95680.00;4981567;28;20050;-89
2021/03/16 05:32:23;;;;;;;1.13;1.08;;;;;;;4.15;93.58;95681.78;4983402;28;20029;-89
2021/03/16 05:34:49;;;;;;;1.88;1.70;;;;;;;4.13;93.29;95682.84;4981487;28;20117;-89
2021/03/16 05:37:14;;;;;;;0.40;0.40;;;;;;;4.11;94.35;95676.81;4980270;28;20057;-90
2021/03/16 05:39:40;;;;;;;0.73;0.73;;;;;;;4.18;94.50;95692.16;4981205;28;20489;-88
2021/03/16 05:42:06;;;;;;;6.70;4.45;;;;;;;4.21;95.05;95685.84;4973137;28;20030;-89
2021/03/16 05:44:32;;;;;;;2.30;1.88;;;;;;;4.29;94.81;95689.66;4997269;28;20053;-90
2021/03/16 05:46:58;;;;;;;1.70;1.55;;;;;;;4.30;94.50;95688.72;4980265;28;20061;-90
2021/03/16 05:49:24;;;;;;;0.40;0.40;;;;;;;4.30;94.06;95690.53;4980558;28;20030;-89
2021/03/16 05:51:50;;;;;;;0.60;0.52;;;;;;;4.07;93.29;95692.03;4980478;28;20200;-90
2021/03/16 05:54:17;;;;;;;0.82;0.75;;;;;;;4.00;94.57;95689.94;4981435;28;20434;-89
2021/03/16 05:56:43;;;;;;;3.92;1.80;;;;;;;3.97;95.54;95701.53;4981675;28;20026;-89
2021/03/16 05:59:09;;;;;;;3.40;1.85;;;;;;;3.96;96.80;95699.00;4980899;28;20045;-89
2021/03/16 06:01:34;;;;;;;0.80;0.80;;;;;;;3.82;97.27;95700.75;4982755;28;20029;-90
2021/03/16 06:04:01;;;;;;;0.63;0.52;;;;;;;3.80;96.39;95707.94;5001931;28;20110;-89
2021/03/16 06:06:27;;;;;;;0.70;0.70;;;;;;;3.69;95.91;95705.13;5016573;28;20083;-88
2021/03/16 06:08:52;;;;;;;0.60;0.60;;;;;;;3.73;96.87;95690.75;4999304;28;20033;-88
2021/03/16 06:11:18;;;;;;;0.98;0.57;;;;;;;3.80;97.25;95707.94;5002426;28;20095;-89
2021/03/16 06:14:08;;;;;;;;;;;;;;;;;;;;;
2021/03/16 06:16:34;;;;;;;2.17;1.65;;;;;;;3.98;97.05;95713.81;5018032;28;20035;-89
2021/03/16 06:19:00;;;;;;;1.90;1.73;;;;;;;3.97;96.68;95698.06;5000039;28;20050;-89
2021/03/16 06:21:25;;;;;;;0.88;0.82;;;;;;;4.07;95.82;95709.72;4999668;28;20104;-89
2021/03/16 06:23:59;;;;;;;2.60;1.92;;;;;;;4.04;95.04;95712.56;4999959;28;20033;-90
2021/03/16 06:26:27;;;;;;;0.98;0.85;;;;;;;4.16;95.88;95730.25;4999565;28;20036;-88
2021/03/16 06:29:04;;;;;;;1.65;1.52;;;;;;;4.18;96.25;95717.81;4999679;28;20405;-88
2021/03/16 06:31:35;;;;;;;1.77;1.05;;;;;;;4.24;98.38;95725.34;5000090;28;20083;-89
2021/03/16 06:36:50;;;;;;;0.63;0.63;;;;;;;4.08;96.87;95695.53;5018670;28;20029;-90
2021/03/16 06:39:19;;;;;;;1.17;1.08;;;;;;;4.24;95.95;95733.25;4993467;28;20063;-91
2021/03/16 06:41:48;;;;;;;0.60;0.60;;;;;;;4.33;96.09;95740.59;5000075;28;20405;-89
2021/03/16 06:44:18;;;;;;;0.75;0.75;;;;;;;4.10;95.66;95743.88;5018326;28;20032;-90
2021/03/16 06:46:56;;;;;;;0.28;0.28;;;;;;;3.94;96.04;95698.25;5001935;28;20021;-90
2021/03/16 06:49:26;;;;;;;0.93;0.73;;;;;;;3.82;96.14;95682.22;4982851;28;20040;-91
2021/03/16 06:51:54;;;;;;;3.13;1.65;;;;;;;3.88;96.70;95690.72;4998870;28;20489;-86
2021/03/16 06:54:25;;;;;;;3.97;1.73;;;;;;;3.97;96.96;95717.41;5002713;28;20033;-91
2021/03/16 06:57:00;;;;;;;0.98;0.85;;;;;;;4.31;96.87;95756.56;5001184;28;20044;-89
2021/03/16 06:59:31;;;;;;;6.78;1.70;;;;;;;4.41;95.53;95759.44;5004722;28;20120;-91
2021/03/16 07:01:58;;;;;;;7.50;1.48;;;;;;;4.00;92.50;95695.22;5001560;28;20056;-87
2021/03/16 07:05:02;;;;;;;1.52;1.42;;;;;;;4.11;94.43;95701.47;4991752;28;20440;-90
2021/03/16 07:07:32;;;;;;;4.28;2.10;;;;;;;4.06;95.31;95713.31;4932494;29;20031;-92
2021/03/16 07:10:04;;;;;;;1.88;1.27;;;;;;;4.19;92.24;95735.34;4981379;28;20026;-90
2021/03/16 07:12:34;;;;;;;6.88;2.10;;;;;;;4.49;96.78;95770.34;4983041;28;20052;-89
2021/03/16 07:15:00;;;;;;;2.42;2.22;;;;;;;4.16;95.77;95731.13;4979148;28;20058;-89
2021/03/16 07:17:27;;;;;;;1.73;1.63;;;;;;;4.25;96.15;95737.59;4980215;28;20033;-90
2021/03/16 07:20:02;;;;;;;0.93;0.93;;;;;;;4.25;96.91;95740.22;4980049;28;20042;-90
2021/03/16 07:22:32;;;;;;;3.13;1.45;;;;;;;4.38;96.23;95767.59;4980784;28;20030;-89
2021/03/16 07:24:58;;;;;;;14.35;4.25;;;;;;;4.30;96.47;95754.03;4989122;28;20065;-89
2021/03/16 07:27:24;;;;;;;2.65;1.60;;;;;;;3.91;93.91;95707.22;4987805;28;20092;-88
2021/03/16 07:29:52;;;;;;;0.38;0.38;;;;;;;4.05;94.72;95740.72;4985297;28;20029;-87
2021/03/16 07:32:18;;;;;;;1.52;1.38;;;;;;;3.97;95.61;95766.81;4986077;28;20033;-90
2021/03/16 07:34:44;;;;;;;1.77;1.65;;;;;;;3.70;95.11;95724.47;4987580;28;20038;-89
2021/03/16 07:37:09;;;;;;;2.25;1.35;;;;;;;4.24;97.43;95810.84;4986273;28;20447;-89
2021/03/16 07:39:35;;;;;;;1.15;1.05;;;;;;;4.37;98.53;95802.94;5001531;28;20068;-90
2021/03/16 07:42:01;;;;;;;1.10;1.00;;;;;;;4.47;95.35;95804.03;4985202;28;20041;-90
2021/03/16 07:44:26;;;;;;;5.57;0.75;;;;;;;4.49;95.90;95807.41;4984972;28;20058;-89
2021/03/16 07:47:02;;;;;;;3.65;2.65;;;;;;;4.33;97.76;95786.44;4983807;28;20187;-89
2021/03/16 07:49:32;;;;;;;1.23;1.13;;;;;;;4.40;99.44;95807.19;4983481;28;20083;-89
2021/03/16 07:51:58;;;;;;;2.72;1.95;;;;;;;4.48;100.00;95811.03;4998864;28;20022;-90
2021/03/16 07:54:31;;;;;;;0.30;0.28;;;;;;;4.51;100.00;95800.25;4984637;28;20033;-90
2021/03/16 07:57:01;;;;;;;3.95;2.22;;;;;;;4.47;98.38;95797.88;4987674;28;20036;-92
2021/03/16 07:59:38;;;;;;;6.13;1.45;;;;;;;4.47;98.25;95805.81;4983212;28;20540;-91
2021/03/16 08:02:04;;;;;;;3.40;1.15;;;;;;;4.52;100.00;95809.03;4988356;28;20630;-90
2021/03/16 08:04:33;;;;;;;0.52;0.52;;;;;;;4.44;97.23;95814.81;4987916;28;20041;-91
2021/03/16 08:07:00;;;;;;;0.50;0.50;;;;;;;4.39;98.89;95811.63;5002228;28;20033;-92
2021/03/16 08:09:26;;;;;;;2.72;0.82;;;;;;;4.48;98.31;95816.31;5017889;28;20037;-91
2021/03/16 08:11:52;;;;;;;1.05;0.75;;;;;;;4.40;99.42;95815.97;5008679;28;20179;-88
2021/03/16 08:14:30;;;;;;;0.70;0.70;;;;;;;4.25;99.27;95782.56;5004736;28;20445;-90
2021/03/16 08:16:56;;;;;;;5.32;2.15;;;;;;;4.06;99.29;95740.59;5005143;28;20033;-90
2021/03/16 08:19:42;;;;;;;0.95;0.93;;;;;;;4.80;97.79;95822.09;5022220;28;20056;-91
2021/03/16 08:22:28;;;;;;;0.88;0.82;;;;;;;4.41;98.38;95779.75;5006067;28;20067;-91
2021/03/16 08:25:33;;;;;;;;;;;;;;;;;;;;;
2021/03/16 08:28:06;;;;;;;1.95;1.50;;;;;;;4.57;99.40;95791.91;5026211;28;20581;-91
2021/03/16 08:30:43;;;;;;;3.92;3.33;;;;;;;4.35;98.88;95743.97;5007558;28;20489;-90
2021/03/16 08:33:10;;;;;;;0.65;0.65;;;;;;;4.53;96.89;95749.84;5000040;28;20045;-90
2021/03/16 08:35:39;;;;;;;0.30;0.30;;;;;;;4.57;97.43;95738.09;5020965;28;20083;-90
2021/03/16 08:38:05;;;;;;;0.22;0.22;;;;;;;4.82;92.45;95772.56;5003803;28;20044;-92
2021/03/16 08:40:31;;;;;;;0.63;0.63;;;;;;;5.04;93.54;95809.03;5003606;28;20037;-92
2021/03/16 08:42:59;;;;;;;0.10;0.10;;;;;;;5.12;95.47;95807.56;5019703;28;20040;-91
2021/03/16 08:45:30;;;;;;;0.65;0.65;;;;;;;5.38;95.61;95817.19;5003745;28;20029;-90
2021/03/16 08:47:56;;;;;;;0.15;0.15;;;;;;;5.44;92.58;95815.94;5002743;28;20026;-89
2021/03/16 08:50:23;;;;;;;1.75;0.95;;;;;;;5.42;95.41;95815.19;5002584;28;20033;-90
2021/03/16 08:52:49;;;;;;;0.68;0.65;;;;;;;5.44;91.75;95819.41;5001422;28;20497;-90
2021/03/16 08:55:29;;;;;;;3.25;1.70;;;;;;;5.26;88.96;95810.09;5018085;28;20080;-91
2021/03/16 08:57:55;;;;;;;2.63;1.70;;;;;;;5.18;91.60;95811.56;5002939;28;20033;-89
2021/03/16 09:00:28;;;;;;;2.15;1.25;;;;;;;5.25;94.22;95818.16;5019987;28;20022;-91
2021/03/16 09:02:54;;;;;;;;;;;;;;;5.47;94.90;95818.38;5003610;28;20049;-90
2021/03/16 09:05:25;;;;;;;0.30;0.30;;;;;;;5.59;94.49;95806.91;5036965;28;19917;-90
2021/03/16 09:08:04;;;;;;;0.35;0.35;;;;;;;5.93;90.39;95811.56;5004418;28;20033;-90
2021/03/16 09:10:30;;;;;;;0.10;0.10;;;;;;;5.96;87.81;95811.34;4998081;28;20045;-91
2021/03/16 09:12:56;;;;;;;1.48;1.38;;;;;;;5.86;87.36;95820.91;5003148;28;20063;-90
2021/03/16 09:15:27;;;;;;;1.10;1.00;;;;;;;5.75;87.75;95810.16;5005708;28;20029;-88
2021/03/16 09:17:54;;;;;;;0.47;0.47;;;;;;;5.93;89.22;95830.13;5005216;28;20032;-90
2021/03/16 09:20:25;;;;;;;10.40;1.15;;;;;;;6.16;89.38;95824.97;5001332;28;20409;-89
2021/03/16 09:22:53;;;;;;;0.82;0.82;;;;;;;6.09;89.18;95827.19;5002186;28;20041;-91
2021/03/16 09:25:25;;;;;;;8.18;2.72;;;;;;;5.80;86.93;95826.63;5019547;28;20112;-90
2021/03/16 09:27:50;;;;;;;1.88;1.15;;;;;;;5.87;86.45;95832.38;5002953;28;20044;-90
2021/03/16 09:30:17;;;;;;;0.57;0.57;;;;;;;5.86;87.94;95825.34;5002172;28;20021;-90
2021/03/16 09:32:44;;;;;;;0.43;0.43;;;;;;;6.00;87.60;95838.47;5001283;28;20032;-90
2021/03/16 09:35:12;;;;;;;1.50;0.73;;;;;;;5.99;86.57;95820.88;5019805;28;20029;-90
2021/03/16 09:37:47;;;;;;;7.15;3.70;;;;;;;6.20;87.92;95835.25;5002669;28;20031;-88
2021/03/16 09:40:13;;;;;;;1.27;1.17;;;;;;;6.07;86.95;95836.25;5000392;28;20025;-89
2021/03/16 09:42:46;;;;;;;0.90;0.63;;;;;;;6.16;87.25;95833.78;5001775;28;20032;-92
2021/03/16 09:45:20;;;;;;;6.35;1.83;;;;;;;6.28;86.72;95850.63;5002398;28;20060;-90
2021/03/16 09:47:47;;;;;;;1.48;1.17;;;;;;;6.30;89.10;95852.22;5004518;28;20438;-89
2021/03/16 09:50:38;;;;;;;2.47;1.40;;;;;;;6.30;86.44;95846.06;5002962;28;20029;-89
2021/03/16 09:53:07;;;;;;;0.60;0.50;;;;;;;6.23;84.88;95834.19;5019056;28;20026;-89
2021/03/16 09:55:33;;;;;;;0.75;0.75;;;;;;;6.32;86.21;95852.09;5000879;28;20041;-90
2021/03/16 09:57:59;;;;;;;0.77;0.73;;;;;;;6.17;85.62;95843.44;5000952;28;20025;-90
2021/03/16 10:00:27;;;;;;;0.47;0.45;;;;;;;6.11;87.95;95858.97;5000719;28;20033;-90
2021/03/16 10:03:07;;;;;;;4.47;0.93;;;;;;;6.15;90.69;95853.34;5001945;28;20049;-89
2021/03/16 10:05:32;;;;;;;1.45;1.20;;;;;;;6.21;90.24;95849.38;4993611;28;20489;-89
2021/03/16 10:07:58;;;;;;;1.42;1.08;;;;;;;6.41;90.38;95854.09;4999937;28;20037;-89
2021/03/16 10:10:27;;;;;;;1.42;1.30;;;;;;;6.56;88.25;95852.97;5018102;28;20029;-91
2021/03/16 10:12:56;;;;;;;1.80;0.95;;;;;;;6.49;81.46;95854.41;5004301;28;20500;-91
2021/03/16 10:15:30;;;;;;;0.88;0.88;;;;;;;6.23;79.43;95872.19;5001048;28;20493;-90
2021/03/16 10:18:01;;;;;;;0.40;0.40;;;;;;;6.04;83.26;95858.53;5001160;28;20438;-89
2021/03/16 10:20:41;;;;;;;0.38;0.38;;;;;;;6.09;82.80;95859.03;4999889;28;20025;-89
2021/03/16 10:23:11;;;;;;;0.60;0.60;;;;;;;6.34;82.00;95868.75;4999638;28;20061;-91
2021/03/16 10:25:37;;;;;;;0.88;0.88;;;;;;;6.38;81.03;95871.09;4999801;28;20081;-88
2021/03/16 10:28:05;;;;;;;1.65;0.82;;;;;;;6.45;82.51;95876.81;4999028;28;20030;-90
2021/03/16 10:30:36;;;;;;;2.50;1.10;;;;;;;6.54;78.38;95881.44;5014894;28;20496;-90
2021/03/16 10:33:06;;;;;;;0.63;0.63;;;;;;;6.57;80.63;95875.91;5015121;28;20489;-89
2021/03/16 10:35:33;;;;;;;4.50;2.30;;;;;;;6.61;84.86;95869.44;5004497;28;20036;-89
2021/03/16 10:37:59;;;;;;;4.25;3.53;;;;;;;6.75;82.51;95884.34;4999827;28;20045;-88
2021/03/16 10:40:25;;;;;;;5.20;3.45;;;;;;;6.61;82.79;95882.72;4998955;28;20037;-90
2021/03/16 10:42:51;;;;;;;2.33;2.10;;;;;;;6.56;84.55;95884.84;5015436;28;20022;-89
2021/03/16 10:45:17;;;;;;;5.95;2.10;;;;;;;6.40;80.56;95884.25;4999242;28;20032;-89
2021/03/16 10:47:42;;;;;;;1.00;0.77;;;;;;;6.13;83.03;95889.72;4999730;28;20405;-90
2021/03/16 10:50:09;;;;;;;1.13;1.10;;;;;;;6.01;79.80;95879.97;5016408;28;20029;-90
2021/03/16 10:52:34;;;;;;;1.45;1.15;;;;;;;5.97;83.21;95889.97;5016387;28;20026;-90
2021/03/16 10:55:00;;;;;;;1.83;1.42;;;;;;;5.85;84.60;95893.47;4999736;28;20099;-90
2021/03/16 10:57:25;;;;;;;10.43;1.13;;;;;;;5.83;84.03;95884.75;5005055;28;20413;-91
2021/03/16 11:00:06;;;;;;;1.02;0.95;;;;;;;5.90;87.31;95901.13;5005594;28;20032;-90
2021/03/16 11:02:32;;;;;;;1.65;0.90;;;;;;;5.86;82.30;95892.53;5008389;28;20061;-89
2021/03/16 11:04:57;;;;;;;12.60;1.75;;;;;;;5.83;85.79;95898.03;5006643;28;20025;-89
2021/03/16 11:07:25;;;;;;;1.52;1.20;;;;;;;5.81;86.30;95892.00;5006620;28;20032;-88
2021/03/16 11:09:51;;;;;;;2.42;1.90;;;;;;;5.75;84.58;95891.56;5003610;28;20037;-89
2021/03/16 11:12:17;;;;;;;1.48;1.38;;;;;;;5.73;86.72;95888.16;5004952;28;20075;-88
2021/03/16 11:14:43;;;;;;;2.50;1.77;;;;;;;5.72;87.62;95881.97;5024986;28;20033;-89
2021/03/16 11:17:09;;;;;;;1.58;1.23;;;;;;;5.58;88.50;95911.28;5006024;28;20049;-89
2021/03/16 11:19:34;;;;;;;1.00;0.88;;;;;;;5.30;88.93;95887.59;5024082;28;20033;-90
2021/03/16 11:22:09;;;;;;;7.65;1.33;;;;;;;5.11;89.37;95866.78;5006693;28;20303;-88
2021/03/16 11:24:34;;;;;;;1.83;1.73;;;;;;;5.31;92.17;95902.56;5006392;28;20042;-88
2021/03/16 11:27:01;;;;;;;6.90;2.05;;;;;;;5.23;93.42;95886.34;5021598;28;20025;-90
2021/03/16 11:29:27;;;;;;;3.10;2.58;;;;;;;5.22;92.97;95882.81;5004216;28;20424;-90
2021/03/16 11:31:52;;;;;;;2.08;1.85;;;;;;;5.27;92.33;95899.25;5004246;28;20029;-89
2021/03/16 11:34:19;;;;;;;2.63;1.60;;;;;;;5.18;92.77;95901.66;5003212;28;20033;-90
2021/03/16 11:36:45;;;;;;;2.63;1.77;;;;;;;5.05;89.75;95885.75;5023590;28;20055;-89
2021/03/16 11:39:11;;;;;;;2.10;1.42;;;;;;;5.04;92.76;95907.91;5004588;28;20527;-89
2021/03/16 11:41:40;;;;;;;1.05;1.05;;;;;;;5.19;94.22;95919.28;5002973;28;20036;-89
2021/03/16 11:44:05;;;;;;;3.55;2.33;;;;;;;5.37;90.31;95902.13;5004519;28;20026;-91
2021/03/16 11:46:31;;;;;;;1.23;0.95;;;;;;;5.26;91.38;95910.78;5020524;28;20029;-90
2021/03/16 11:48:56;;;;;;;5.18;2.42;;;;;;;4.98;93.29;95904.81;5003991;28;20030;-91
2021/03/16 11:51:22;;;;;;;3.22;1.75;;;;;;;4.90;95.47;95905.31;5003788;28;20036;-90
2021/03/16 11:53:48;;;;;;;5.28;1.85;;;;;;;4.80;93.91;95905.06;5020911;28;20515;-91